createdAt,value
2018-09-29T00:00:08.281Z,102478.10
2018-09-29T00:02:34.262Z,102481.31
2018-09-29T00:05:00.211Z,102483.47
2018-09-29T00:07:26.163Z,102481.76
2018-09-29T00:09:52.117Z,102479.60
2018-09-29T00:12:18.092Z,102479.12
2018-09-29T00:14:44.112Z,102480.08
2018-09-29T00:17:10.051Z,102480.44
2018-09-29T00:19:36.040Z,102474.45
2018-09-29T00:22:02.312Z,102475.38
2018-09-29T00:24:28.281Z,102474.80
2018-09-29T00:26:54.228Z,102463.02
2018-09-29T00:29:20.218Z,102468.78
2018-09-29T00:31:46.200Z,102466.14
2018-09-29T00:34:12.184Z,102456.91
2018-09-29T00:36:38.131Z,102454.27
2018-09-29T00:39:04.083Z,102456.91
2018-09-29T00:41:30.037Z,102457.86
2018-09-29T00:43:56.004Z,102452.59
2018-09-29T00:46:22.175Z,102456.55
2018-09-29T00:48:48.136Z,102463.14
2018-09-29T00:51:14.077Z,102460.50
2018-09-29T00:53:40.080Z,102463.14
2018-09-29T00:56:06.058Z,102467.58
2018-09-29T00:58:32.007Z,102463.63
2018-09-29T01:00:58.259Z,102466.26
2018-09-29T01:03:24.240Z,102464.46
2018-09-29T01:05:50.187Z,102466.70
2018-09-29T01:08:16.127Z,102459.39
2018-09-29T01:10:42.075Z,102452.31
2018-09-29T01:13:08.015Z,102458.91
2018-09-29T01:15:33.944Z,102460.23
2018-09-29T01:18:00.041Z,102458.16
2018-09-29T01:20:26.011Z,102459.00
2018-09-29T01:22:51.964Z,102458.08
2018-09-29T01:25:17.936Z,102455.05
2018-09-29T01:27:43.883Z,102459.84
2018-09-29T01:30:09.855Z,102454.20
2018-09-29T01:32:35.845Z,102458.52
2018-09-29T01:35:01.789Z,102458.64
2018-09-29T01:37:27.744Z,102455.52
2018-09-29T01:39:53.696Z,102456.01
2018-09-29T01:42:19.659Z,102452.50
2018-09-29T01:44:45.612Z,102441.94
2018-09-29T01:47:11.563Z,102449.02
2018-09-29T01:49:37.509Z,102449.14
2018-09-29T01:52:03.466Z,102446.95
2018-09-29T01:54:29.427Z,102444.58
2018-09-29T01:56:55.375Z,102447.22
2018-09-29T01:59:21.332Z,102452.98
2018-09-29T02:01:47.344Z,102443.47
2018-09-29T02:04:13.247Z,102440.35
2018-09-29T02:06:39.196Z,102437.36
2018-09-29T02:09:05.150Z,102437.71
2018-09-29T02:11:31.109Z,102434.14
2018-09-29T02:13:57.061Z,102435.08
2018-09-29T02:16:23.007Z,102442.64
2018-09-29T02:18:48.956Z,102443.47
2018-09-29T02:21:14.900Z,102438.67
2018-09-29T02:23:40.864Z,102446.59
2018-09-29T02:26:06.850Z,102448.00
2018-09-29T02:28:32.759Z,102448.88
2018-09-29T02:30:58.705Z,102454.15
2018-09-29T02:33:25.591Z,102451.51
2018-09-29T02:35:51.535Z,102451.13
2018-09-29T02:38:17.483Z,102452.08
2018-09-29T02:40:43.499Z,102448.13
2018-09-29T02:43:09.455Z,102449.44
2018-09-29T02:45:35.460Z,102454.23
2018-09-29T02:48:01.417Z,102455.20
2018-09-29T02:50:27.360Z,102459.16
2018-09-29T02:52:53.331Z,102454.72
2018-09-29T02:55:19.262Z,102456.04
2018-09-29T02:57:45.242Z,102453.01
2018-09-29T03:00:11.189Z,102458.73
2018-09-29T03:02:37.159Z,102453.87
2018-09-29T03:05:03.100Z,102456.97
2018-09-29T03:07:29.080Z,102453.94
2018-09-29T03:09:55.024Z,102456.09
2018-09-29T03:12:20.975Z,102457.53
2018-09-29T03:14:46.936Z,102454.98
2018-09-29T03:17:12.893Z,102453.58
2018-09-29T03:19:38.832Z,102459.30
2018-09-29T03:22:04.778Z,102454.90
2018-09-29T03:24:30.828Z,102452.70
2018-09-29T03:26:56.767Z,102454.02
2018-09-29T03:29:22.726Z,102458.38
2018-09-29T03:31:48.736Z,102463.38
2018-09-29T03:34:14.641Z,102461.58
2018-09-29T03:36:40.615Z,102463.26
2018-09-29T03:39:06.664Z,102461.58
2018-09-29T03:41:32.608Z,102449.32
2018-09-29T03:43:58.565Z,102450.28
2018-09-29T03:46:24.525Z,102452.83
2018-09-29T03:48:50.471Z,102448.00
2018-09-29T03:51:16.540Z,102446.86
2018-09-29T03:53:42.568Z,102445.27
2018-09-29T03:56:08.470Z,102444.16
2018-09-29T03:58:34.427Z,102441.89
2018-09-29T04:01:00.373Z,102442.72
2018-09-29T04:03:26.336Z,102438.50
2018-09-29T04:05:52.281Z,102441.05
2018-09-29T04:08:18.226Z,102441.05
2018-09-29T04:10:44.177Z,102447.91
2018-09-29T04:13:10.116Z,102438.31
2018-09-29T04:15:36.173Z,102434.93
2018-09-29T04:18:02.118Z,102436.61
2018-09-29T04:20:28.067Z,102433.04
2018-09-29T04:22:54.153Z,102441.53
2018-09-29T04:25:20.112Z,102442.45
2018-09-29T04:27:46.060Z,102441.53
2018-09-29T04:30:12.027Z,102440.20
2018-09-29T04:32:37.980Z,102437.66
2018-09-29T04:35:03.952Z,102437.66
2018-09-29T04:37:30.071Z,102441.26
2018-09-29T04:39:56.091Z,102443.89
2018-09-29T04:42:22.055Z,102443.41
2018-09-29T04:44:48.003Z,102446.05
2018-09-29T04:47:13.968Z,102450.01
2018-09-29T04:49:39.911Z,102450.97
2018-09-29T04:52:05.868Z,102455.28
2018-09-29T04:54:31.811Z,102456.25
2018-09-29T04:56:57.814Z,102464.61
2018-09-29T04:59:23.756Z,102453.78
2018-09-29T05:01:49.695Z,102452.73
2018-09-29T05:04:15.641Z,102447.58
2018-09-29T05:06:41.716Z,102445.30
2018-09-29T05:09:07.680Z,102447.94
2018-09-29T05:11:33.630Z,102457.17
2018-09-29T05:13:59.696Z,102461.25
2018-09-29T05:16:25.576Z,102463.77
2018-09-29T05:18:51.519Z,102461.13
2018-09-29T05:21:17.461Z,102461.13
2018-09-29T05:23:43.408Z,102463.02
2018-09-29T05:26:09.351Z,102466.97
2018-09-29T05:28:35.303Z,102470.00
2018-09-29T05:31:01.266Z,102466.13
2018-09-29T05:33:27.441Z,102465.30
2018-09-29T05:35:53.387Z,102470.48
2018-09-29T05:38:19.358Z,102471.68
2018-09-29T05:40:45.309Z,102473.56
2018-09-29T05:43:11.319Z,102472.85
2018-09-29T05:45:37.280Z,102473.56
2018-09-29T05:48:03.237Z,102478.84
2018-09-29T05:50:29.226Z,102477.23
2018-09-29T05:52:55.176Z,102480.91
2018-09-29T05:55:21.120Z,102489.30
2018-09-29T05:57:47.062Z,102488.55
2018-09-29T06:02:45.371Z,102490.36
2018-09-29T06:05:11.314Z,102489.12
2018-09-29T06:07:37.278Z,102495.36
2018-09-29T06:10:03.239Z,102486.97
2018-09-29T06:12:29.183Z,102497.52
2018-09-29T06:14:55.295Z,102498.36
2018-09-29T06:17:21.355Z,102504.20
2018-09-29T06:19:47.296Z,102508.91
2018-09-29T06:22:13.255Z,102510.23
2018-09-29T06:24:39.233Z,102509.03
2018-09-29T06:27:05.203Z,102509.03
2018-09-29T06:29:31.144Z,102507.31
2018-09-29T06:31:57.098Z,102502.04
2018-09-29T06:34:23.154Z,102505.07
2018-09-29T06:36:49.020Z,102500.16
2018-09-29T06:39:15.055Z,102500.55
2018-09-29T06:41:41.001Z,102502.23
2018-09-29T06:44:06.960Z,102496.95
2018-09-29T06:46:32.911Z,102492.16
2018-09-29T06:48:58.878Z,102496.95
2018-09-29T06:51:24.826Z,102506.09
2018-09-29T06:53:50.824Z,102497.22
2018-09-29T06:56:16.766Z,102498.91
2018-09-29T06:58:42.832Z,102499.02
2018-09-29T07:01:08.792Z,102501.18
2018-09-29T07:03:34.756Z,102497.47
2018-09-29T07:06:00.719Z,102491.08
2018-09-29T07:08:26.680Z,102487.30
2018-09-29T07:10:52.624Z,102496.80
2018-09-29T07:13:18.588Z,102494.58
2018-09-29T07:18:16.410Z,102498.56
2018-09-29T07:20:42.364Z,102499.31
2018-09-29T07:23:08.328Z,102495.66
2018-09-29T07:25:34.401Z,102505.72
2018-09-29T07:28:00.262Z,102502.16
2018-09-29T07:30:26.208Z,102501.68
2018-09-29T07:32:52.258Z,102503.84
2018-09-29T07:35:18.219Z,102508.06
2018-09-29T07:37:44.168Z,102505.43
2018-09-29T07:40:10.120Z,102504.11
2018-09-29T07:42:36.072Z,102505.83
2018-09-29T07:45:02.023Z,102501.86
2018-09-29T07:47:27.963Z,102494.87
2018-09-29T07:49:53.927Z,102503.19
2018-09-29T07:52:19.899Z,102502.23
2018-09-29T07:54:45.875Z,102502.23
2018-09-29T07:57:11.847Z,102503.91
2018-09-29T07:59:37.793Z,102495.16
2018-09-29T08:02:03.773Z,102487.23
2018-09-29T08:04:29.728Z,102491.67
2018-09-29T08:06:55.684Z,102486.76
2018-09-29T08:09:21.648Z,102496.95
2018-09-29T08:11:47.609Z,102493.95
2018-09-29T08:14:13.559Z,102484.72
2018-09-29T08:16:39.527Z,102485.56
2018-09-29T08:19:05.490Z,102489.03
2018-09-29T08:21:31.437Z,102486.40
2018-09-29T08:23:57.400Z,102485.83
2018-09-29T08:26:23.469Z,102476.20
2018-09-29T08:28:49.445Z,102475.64
2018-09-29T08:31:15.395Z,102477.08
2018-09-29T08:33:41.380Z,102470.48
2018-09-29T08:36:07.346Z,102468.69
2018-09-29T08:38:33.288Z,102466.52
2018-09-29T08:40:59.240Z,102467.72
2018-09-29T08:43:25.192Z,102468.69
2018-09-29T08:45:51.144Z,102465.92
2018-09-29T08:48:17.355Z,102464.16
2018-09-29T08:50:43.334Z,102457.17
2018-09-29T08:53:09.355Z,102463.41
2018-09-29T08:55:35.282Z,102466.52
2018-09-29T08:58:01.228Z,102461.70
2018-09-29T09:00:27.183Z,102455.58
2018-09-29T09:02:53.256Z,102453.34
2018-09-29T09:05:19.225Z,102452.86
2018-09-29T09:07:45.176Z,102463.77
2018-09-29T09:10:11.144Z,102455.86
2018-09-29T09:12:37.085Z,102453.69
2018-09-29T09:15:03.066Z,102454.05
2018-09-29T09:17:29.120Z,102447.46
2018-09-29T09:19:55.104Z,102449.26
2018-09-29T09:22:21.043Z,102451.41
2018-09-29T09:24:47.061Z,102447.37
2018-09-29T09:27:13.016Z,102445.21
2018-09-29T09:29:38.968Z,102441.34
2018-09-29T09:32:04.939Z,102440.03
2018-09-29T09:34:30.904Z,102443.89
2018-09-29T09:36:56.878Z,102431.27
2018-09-29T09:39:22.851Z,102431.27
2018-09-29T09:41:48.876Z,102436.55
2018-09-29T09:44:14.852Z,102434.27
2018-09-29T09:46:40.825Z,102430.31
2018-09-29T09:49:07.048Z,102431.19
2018-09-29T09:51:33.017Z,102433.83
2018-09-29T09:53:58.961Z,102421.95
2018-09-29T09:56:24.935Z,102419.31
2018-09-29T09:58:50.979Z,102419.67
2018-09-29T10:01:16.946Z,102408.76
2018-09-29T10:03:42.891Z,102406.96
2018-09-29T10:06:08.848Z,102409.12
2018-09-29T10:08:34.796Z,102401.69
2018-09-29T10:11:00.761Z,102391.22
2018-09-29T10:13:26.995Z,102391.97
2018-09-29T10:15:53.236Z,102390.38
2018-09-29T10:18:19.208Z,102383.22
2018-09-29T10:20:45.144Z,102378.87
2018-09-29T10:23:11.121Z,102377.46
2018-09-29T10:25:37.063Z,102369.55
2018-09-29T10:28:03.039Z,102364.27
2018-09-29T10:30:29.223Z,102362.95
2018-09-29T10:32:55.181Z,102362.95
2018-09-29T10:35:21.135Z,102359.95
2018-09-29T10:37:47.091Z,102362.59
2018-09-29T10:40:13.037Z,102347.12
2018-09-29T10:42:38.982Z,102345.45
2018-09-29T10:45:05.066Z,102337.05
2018-09-29T10:47:31.027Z,102332.66
2018-09-29T10:49:56.988Z,102333.34
2018-09-29T10:52:22.969Z,102322.41
2018-09-29T10:54:48.936Z,102325.50
2018-09-29T10:57:14.889Z,102330.41
2018-09-29T10:59:40.832Z,102324.87
2018-09-29T11:02:06.882Z,102322.33
2018-09-29T11:04:32.815Z,102319.21
2018-09-29T11:06:58.773Z,102315.73
2018-09-29T11:09:25.088Z,102309.23
2018-09-29T11:11:51.072Z,102310.19
2018-09-29T11:14:17.125Z,102303.95
2018-09-29T11:16:43.023Z,102299.64
2018-09-29T11:19:09.120Z,102297.27
2018-09-29T11:21:35.260Z,102295.69
2018-09-29T11:24:01.349Z,102289.18
2018-09-29T11:26:27.292Z,102285.13
2018-09-29T11:28:53.271Z,102281.27
2018-09-29T11:31:19.369Z,102280.82
2018-09-29T11:33:45.360Z,102274.09
2018-09-29T11:36:11.376Z,102273.78
2018-09-29T11:38:37.397Z,102270.22
2018-09-29T11:41:03.428Z,102266.43
2018-09-29T11:43:29.383Z,102257.32
2018-09-29T11:45:55.415Z,102258.52
2018-09-29T11:48:21.427Z,102251.91
2018-09-29T11:50:47.386Z,102250.30
2018-09-29T11:53:13.340Z,102242.03
2018-09-29T11:55:39.285Z,102231.58
2018-09-29T11:58:05.235Z,102226.69
2018-09-29T12:00:31.480Z,102224.14
2018-09-29T12:02:57.440Z,102223.88
2018-09-29T12:05:23.396Z,102220.50
2018-09-29T12:07:49.398Z,102213.91
2018-09-29T12:10:15.339Z,102211.75
2018-09-29T12:12:41.323Z,102204.67
2018-09-29T12:15:07.273Z,102209.11
2018-09-29T12:17:33.244Z,102201.55
2018-09-29T12:19:59.230Z,102196.77
2018-09-29T12:22:25.263Z,102186.21
2018-09-29T12:24:51.167Z,102189.59
2018-09-29T12:27:17.117Z,102183.34
2018-09-29T12:29:43.136Z,102181.45
2018-09-29T12:32:09.265Z,102172.31
2018-09-29T12:34:35.219Z,102170.91
2018-09-29T12:37:01.232Z,102163.47
2018-09-29T12:39:27.135Z,102164.88
2018-09-29T12:41:53.296Z,102162.25
2018-09-29T12:44:19.286Z,102159.99
2018-09-29T12:46:45.240Z,102158.77
2018-09-29T12:49:11.192Z,102154.33
2018-09-29T12:51:37.257Z,102143.04
2018-09-29T12:54:03.187Z,102145.09
2018-09-29T12:56:29.228Z,102143.04
2018-09-29T12:58:55.206Z,102131.17
2018-09-29T13:01:21.131Z,102136.83
2018-09-29T13:03:47.106Z,102130.23
2018-09-29T13:06:13.061Z,102121.58
2018-09-29T13:08:39.012Z,102120.03
2018-09-29T13:11:05.002Z,102118.23
2018-09-29T13:13:30.933Z,102116.82
2018-09-29T13:15:56.883Z,102106.84
2018-09-29T13:18:22.840Z,102108.42
2018-09-29T13:20:48.783Z,102100.64
2018-09-29T13:23:14.735Z,102094.40
2018-09-29T13:25:40.705Z,102089.61
2018-09-29T13:28:06.655Z,102091.41
2018-09-29T13:30:32.599Z,102082.62
2018-09-29T13:32:58.539Z,102078.67
2018-09-29T13:35:24.567Z,102074.36
2018-09-29T13:37:50.517Z,102076.03
2018-09-29T13:40:16.462Z,102076.90
2018-09-29T13:42:42.408Z,102076.03
2018-09-29T13:45:08.368Z,102071.23
2018-09-29T13:47:34.320Z,102061.07
2018-09-29T13:50:00.271Z,102057.46
2018-09-29T13:52:26.224Z,102056.63
2018-09-29T13:54:52.157Z,102059.62
2018-09-29T13:57:18.139Z,102056.53
2018-09-29T13:59:44.095Z,102047.30
2018-09-29T14:02:10.106Z,102043.20
2018-09-29T14:04:36.067Z,102038.90
2018-09-29T14:07:02.031Z,102037.03
2018-09-29T14:09:28.072Z,102034.45
2018-09-29T14:11:54.020Z,102030.50
2018-09-29T14:14:19.972Z,102026.06
2018-09-29T14:16:48.676Z,102025.22
2018-09-29T14:19:14.714Z,102021.20
2018-09-29T14:21:40.840Z,102014.61
2018-09-29T14:24:06.919Z,102009.78
2018-09-29T14:26:32.895Z,102006.27
2018-09-29T14:28:58.869Z,102000.93
2018-09-29T14:31:24.811Z,101989.31
2018-09-29T14:33:50.791Z,101991.23
2018-09-29T14:36:16.740Z,101995.42
2018-09-29T14:38:42.737Z,101990.24
2018-09-29T14:41:08.776Z,101982.81
2018-09-29T14:43:34.812Z,101987.50
2018-09-29T14:46:00.816Z,101979.84
2018-09-29T14:48:26.851Z,101978.87
2018-09-29T14:50:52.880Z,101979.98
2018-09-29T14:53:18.824Z,101964.98
2018-09-29T14:55:44.787Z,101972.91
2018-09-29T14:58:10.739Z,101962.94
2018-09-29T15:00:36.720Z,101956.83
2018-09-29T15:03:02.671Z,101954.77
2018-09-29T15:05:28.645Z,101951.30
2018-09-29T15:07:54.618Z,101947.11
2018-09-29T15:10:20.679Z,101943.78
2018-09-29T15:12:46.535Z,101937.63
2018-09-29T15:15:12.493Z,101935.23
2018-09-29T15:17:38.485Z,101932.10
2018-09-29T15:20:04.450Z,101934.84
2018-09-29T15:22:30.411Z,101923.94
2018-09-29T15:24:56.361Z,101925.75
2018-09-29T15:27:22.314Z,101928.25
2018-09-29T15:29:48.255Z,101919.64
2018-09-29T15:32:14.230Z,101921.31
2018-09-29T15:34:40.270Z,101919.05
2018-09-29T15:37:06.265Z,101911.39
2018-09-29T15:39:32.208Z,101909.23
2018-09-29T15:41:58.151Z,101909.58
2018-09-29T15:44:24.136Z,101908.95
2018-09-29T15:46:50.120Z,101909.33
2018-09-29T15:49:16.103Z,101908.46
2018-09-29T15:51:42.059Z,101902.35
2018-09-29T15:54:08.097Z,101907.63
2018-09-29T15:56:34.055Z,101904.50
2018-09-29T15:59:00.025Z,101898.05
2018-09-29T16:01:26.098Z,101900.30
2018-09-29T16:03:52.167Z,101895.89
2018-09-29T16:06:18.144Z,101894.57
2018-09-29T16:08:44.063Z,101894.09
2018-09-29T16:11:10.068Z,101885.58
2018-09-29T16:13:36.011Z,101884.27
2018-09-29T16:16:01.973Z,101880.31
2018-09-29T16:18:27.910Z,101880.31
2018-09-29T16:20:53.910Z,101874.41
2018-09-29T16:23:20.469Z,101880.66
2018-09-29T16:25:46.469Z,101867.57
2018-09-29T16:28:12.660Z,101871.19
2018-09-29T16:30:38.637Z,101863.02
2018-09-29T16:33:04.612Z,101859.70
2018-09-29T16:35:30.581Z,101861.22
2018-09-29T16:37:56.636Z,101863.02
2018-09-29T16:40:22.662Z,101860.42
2018-09-29T16:42:48.656Z,101855.84
2018-09-29T16:45:14.732Z,101852.96
2018-09-29T16:47:40.699Z,101854.52
2018-09-29T16:50:06.691Z,101851.16
2018-09-29T16:52:32.696Z,101857.27
2018-09-29T16:54:58.652Z,101845.53
2018-09-29T16:57:24.629Z,101842.41
2018-09-29T16:59:50.606Z,101844.55
2018-09-29T17:02:16.519Z,101840.98
2018-09-29T17:04:42.649Z,101841.81
2018-09-29T17:07:08.442Z,101841.81
2018-09-29T17:09:34.388Z,101847.68
2018-09-29T17:12:00.354Z,101841.33
2018-09-29T17:14:26.331Z,101837.13
2018-09-29T17:16:52.296Z,101838.45
2018-09-29T17:19:18.261Z,101840.60
2018-09-29T17:21:44.389Z,101834.48
2018-09-29T17:24:10.188Z,101834.01
2018-09-29T17:26:36.167Z,101834.25
2018-09-29T17:29:02.134Z,101833.41
2018-09-29T17:31:28.162Z,101832.58
2018-09-29T17:33:54.144Z,101832.58
2018-09-29T17:36:20.099Z,101831.50
2018-09-29T17:38:46.128Z,101826.23
2018-09-29T17:41:12.140Z,101830.19
2018-09-29T17:43:38.185Z,101825.74
2018-09-29T17:46:04.147Z,101833.31
2018-09-29T17:48:30.123Z,101827.66
2018-09-29T17:50:56.075Z,101824.42
2018-09-29T17:53:22.038Z,101826.23
2018-09-29T17:55:47.992Z,101826.34
2018-09-29T17:58:13.968Z,101826.34
2018-09-29T18:00:39.953Z,101822.38
2018-09-29T18:03:05.932Z,101821.06
2018-09-29T18:05:31.892Z,101820.95
2018-09-29T18:07:57.983Z,101818.91
2018-09-29T18:10:23.915Z,101829.22
2018-09-29T18:12:49.893Z,101827.79
2018-09-29T18:15:16.122Z,101834.48
2018-09-29T18:17:42.083Z,101831.86
2018-09-29T18:20:08.052Z,101836.30
2018-09-29T18:22:34.036Z,101838.59
2018-09-29T18:25:00.001Z,101835.56
2018-09-29T18:27:25.954Z,101831.27
2018-09-29T18:29:51.932Z,101832.72
2018-09-29T18:32:17.879Z,101829.35
2018-09-29T18:34:43.856Z,101828.48
2018-09-29T18:37:09.839Z,101828.38
2018-09-29T18:39:35.901Z,101830.53
2018-09-29T18:42:01.867Z,101831.02
2018-09-29T18:44:27.868Z,101819.49
2018-09-29T18:46:54.100Z,101818.42
2018-09-29T18:49:20.060Z,101820.12
2018-09-29T18:51:46.116Z,101824.53
2018-09-29T18:54:12.056Z,101824.53
2018-09-29T18:56:38.018Z,101822.38
2018-09-29T18:59:04.020Z,101807.38
2018-09-29T19:01:29.960Z,101812.55
2018-09-29T19:03:55.939Z,101807.03
2018-09-29T19:06:21.851Z,101809.56
2018-09-29T19:08:47.908Z,101805.23
2018-09-29T19:11:13.873Z,101807.03
2018-09-29T19:13:39.951Z,101806.20
2018-09-29T19:16:05.904Z,101801.41
2018-09-29T19:18:31.916Z,101805.61
2018-09-29T19:20:57.870Z,101807.76
2018-09-29T19:23:23.842Z,101802.10
2018-09-29T19:25:49.809Z,101799.02
2018-09-29T19:28:15.758Z,101800.78
2018-09-29T19:30:41.773Z,101808.11
2018-09-29T19:33:07.731Z,101799.02
2018-09-29T19:35:33.702Z,101805.61
2018-09-29T19:37:59.660Z,101802.00
2018-09-29T19:40:25.820Z,101800.09
2018-09-29T19:42:51.823Z,101796.48
2018-09-29T19:45:17.860Z,101795.65
2018-09-29T19:47:43.806Z,101798.28
2018-09-29T19:50:09.816Z,101796.97
2018-09-29T19:52:35.948Z,101796.23
2018-09-29T19:55:01.953Z,101796.48
2018-09-29T19:57:27.925Z,101799.47
2018-09-29T19:59:53.860Z,101793.01
2018-09-29T20:02:19.907Z,101794.33
2018-09-29T20:04:45.901Z,101792.03
2018-09-29T20:07:11.847Z,101790.72
2018-09-29T20:09:37.908Z,101784.84
2018-09-29T20:12:03.934Z,101785.23
2018-09-29T20:14:30.005Z,101786.65
2018-09-29T20:16:56.272Z,101789.53
2018-09-29T20:19:22.319Z,101793.00
2018-09-29T20:21:48.326Z,101786.76
2018-09-29T20:24:14.423Z,101787.84
2018-09-29T20:26:40.446Z,101783.30
2018-09-29T20:29:06.517Z,101782.05
2018-09-29T20:31:32.494Z,101777.74
2018-09-29T20:33:58.478Z,101782.64
2018-09-29T20:36:24.488Z,101780.00
2018-09-29T20:38:50.467Z,101778.02
2018-09-29T20:41:16.464Z,101770.59
2018-09-29T20:43:42.439Z,101771.63
2018-09-29T20:46:08.393Z,101774.38
2018-09-29T20:48:34.355Z,101769.93
2018-09-29T20:51:00.560Z,101766.70
2018-09-29T20:53:26.542Z,101762.85
2018-09-29T20:55:52.533Z,101766.22
2018-09-29T20:58:18.468Z,101770.17
2018-09-29T21:00:44.487Z,101763.58
2018-09-29T21:03:10.445Z,101770.17
2018-09-29T21:05:36.391Z,101765.31
2018-09-29T21:08:02.362Z,101762.53
2018-09-29T21:10:28.316Z,101759.55
2018-09-29T21:12:54.388Z,101759.55
2018-09-29T21:15:20.260Z,101753.44
2018-09-29T21:17:46.212Z,101751.25
2018-09-29T21:20:12.981Z,101748.73
2018-09-29T21:22:38.956Z,101744.20
2018-09-29T21:25:04.926Z,101743.72
2018-09-29T21:27:30.881Z,101737.69
2018-09-29T21:29:56.853Z,101738.17
2018-09-29T21:32:22.816Z,101730.75
2018-09-29T21:34:48.773Z,101735.05
2018-09-29T21:37:14.712Z,101732.90
2018-09-29T21:39:40.673Z,101735.88
2018-09-29T21:42:06.682Z,101728.37
2018-09-29T21:44:32.657Z,101723.10
2018-09-29T21:46:58.614Z,101719.15
2018-09-29T21:49:24.567Z,101716.23
2018-09-29T21:51:50.523Z,101717.07
2018-09-29T21:54:16.507Z,101718.88
2018-09-29T21:56:42.452Z,101717.55
2018-09-29T21:59:08.419Z,101716.23
2018-09-29T22:01:34.363Z,101703.98
2018-09-29T22:04:00.342Z,101703.16
2018-09-29T22:06:26.311Z,101704.09
2018-09-29T22:08:52.311Z,101710.69
2018-09-29T22:11:18.284Z,101707.00
2018-09-29T22:13:44.228Z,101704.96
2018-09-29T22:16:10.209Z,101706.28
2018-09-29T22:18:36.176Z,101701.95
2018-09-29T22:21:02.173Z,101705.80
2018-09-29T22:23:28.140Z,101701.45
2018-09-29T22:25:54.202Z,101698.82
2018-09-29T22:28:20.138Z,101703.64
2018-09-29T22:30:46.084Z,101701.01
2018-09-29T22:33:12.037Z,101694.52
2018-09-29T22:35:38.016Z,101696.33
2018-09-29T22:38:03.992Z,101682.76
2018-09-29T22:40:30.038Z,101681.81
2018-09-29T22:42:56.001Z,101669.57
2018-09-29T22:45:22.357Z,101670.89
2018-09-29T22:47:48.371Z,101668.25
2018-09-29T22:50:14.375Z,101667.91
2018-09-29T22:52:40.343Z,101669.22
2018-09-29T22:55:06.288Z,101672.83
2018-09-29T22:57:32.345Z,101676.05
2018-09-29T22:59:58.255Z,101669.95
2018-09-29T23:02:24.246Z,101665.75
2018-09-29T23:04:50.231Z,101656.28
2018-09-29T23:07:16.229Z,101657.47
2018-09-29T23:09:42.181Z,101655.69
2018-09-29T23:12:08.140Z,101653.40
2018-09-29T23:14:34.085Z,101655.20
2018-09-29T23:17:00.380Z,101656.52
2018-09-29T23:19:26.343Z,101659.16
2018-09-29T23:21:52.309Z,101656.14
2018-09-29T23:24:18.313Z,101658.33
2018-09-29T23:26:44.268Z,101660.97
2018-09-29T23:29:10.388Z,101657.47
2018-09-29T23:31:36.377Z,101660.59
2018-09-29T23:34:02.323Z,101664.55
2018-09-29T23:36:28.314Z,101653.64
2018-09-29T23:38:54.279Z,101656.77
2018-09-29T23:41:20.240Z,101649.69
2018-09-29T23:43:46.181Z,101649.69
2018-09-29T23:46:12.265Z,101647.54
2018-09-29T23:48:38.248Z,101647.99
2018-09-29T23:51:04.198Z,101651.84
2018-09-29T23:53:30.406Z,101645.36
2018-09-29T23:55:56.352Z,101644.04
2018-09-29T23:58:22.363Z,101647.99
